Victoria, Argentina
Current Conditions -  °F | °C
As of 9:00 PM on Sunday 23 Nov 2014 (Local Time) from SAAR Reporting Station
Clear Clear  
Wind Chill: 77°   Ceiling: Unl
Heat Index: 79°   Visibility: 6mi
Dew Point: 59°   Wind: 9mph
Humidity: 54%   Direction: 20°NNE
Pressure: 29.68"   Gusts: NA
Location:  32.62°S, 60.17°W
Report Text: SAAR 240000Z 02008KT CAVOK 25/15 Q1005
Loading
Personal Weather Stations






























Interactive Weather Map New forecast layout! Learn more

10-Day Weather Forecast

Advertisements
Track Severe Weather on mobile